sensor_id;sensor_type;location;lat;lon;timestamp;P1;durP1;ratioP1;P2;durP2;ratioP2
69979;SDS011;57318;56.232;43.944;2023-04-28T00:01:10;6.37;;;4.47;;
69979;SDS011;57318;56.232;43.944;2023-04-28T00:03:36;6.53;;;4.28;;
69979;SDS011;57318;56.232;43.944;2023-04-28T00:06:02;6.93;;;4.60;;
69979;SDS011;57318;56.232;43.944;2023-04-28T00:08:28;5.40;;;4.80;;
69979;SDS011;57318;56.232;43.944;2023-04-28T00:10:54;5.27;;;4.33;;
69979;SDS011;57318;56.232;43.944;2023-04-28T00:13:19;7.03;;;4.47;;
69979;SDS011;57318;56.232;43.944;2023-04-28T00:15:45;5.57;;;4.50;;
69979;SDS011;57318;56.232;43.944;2023-04-28T00:18:11;5.53;;;4.40;;
69979;SDS011;57318;56.232;43.944;2023-04-28T00:20:36;6.10;;;4.80;;
69979;SDS011;57318;56.232;43.944;2023-04-28T00:23:02;12.70;;;4.90;;
69979;SDS011;57318;56.232;43.944;2023-04-28T00:25:28;6.27;;;4.47;;
69979;SDS011;57318;56.232;43.944;2023-04-28T00:27:53;5.13;;;4.27;;
69979;SDS011;57318;56.232;43.944;2023-04-28T00:30:19;6.03;;;4.87;;
69979;SDS011;57318;56.232;43.944;2023-04-28T00:32:45;6.57;;;4.63;;
69979;SDS011;57318;56.232;43.944;2023-04-28T00:35:11;7.77;;;4.80;;
69979;SDS011;57318;56.232;43.944;2023-04-28T00:37:37;7.27;;;4.40;;
69979;SDS011;57318;56.232;43.944;2023-04-28T00:40:03;5.07;;;4.50;;
69979;SDS011;57318;56.232;43.944;2023-04-28T00:42:31;7.07;;;4.88;;
69979;SDS011;57318;56.232;43.944;2023-04-28T00:44:56;5.57;;;4.97;;
69979;SDS011;57318;56.232;43.944;2023-04-28T00:47:22;5.90;;;4.90;;
69979;SDS011;57318;56.232;43.944;2023-04-28T00:49:48;7.80;;;4.70;;
69979;SDS011;57318;56.232;43.944;2023-04-28T00:52:14;8.00;;;4.95;;
69979;SDS011;57318;56.232;43.944;2023-04-28T00:54:40;6.93;;;5.05;;
69979;SDS011;57318;56.232;43.944;2023-04-28T00:57:09;7.97;;;5.57;;
69979;SDS011;57318;56.232;43.944;2023-04-28T00:59:35;9.68;;;5.30;;
69979;SDS011;57318;56.232;43.944;2023-04-28T01:02:01;7.15;;;5.40;;
69979;SDS011;57318;56.232;43.944;2023-04-28T01:04:28;7.10;;;5.28;;
69979;SDS011;57318;56.232;43.944;2023-04-28T01:09:20;7.43;;;5.38;;
69979;SDS011;57318;56.232;43.944;2023-04-28T01:11:46;7.75;;;5.30;;
69979;SDS011;57318;56.232;43.944;2023-04-28T01:14:12;10.43;;;5.60;;
69979;SDS011;57318;56.232;43.944;2023-04-28T01:16:38;7.33;;;5.70;;
69979;SDS011;57318;56.232;43.944;2023-04-28T01:21:32;12.75;;;6.57;;
69979;SDS011;57318;56.232;43.944;2023-04-28T01:26:24;6.25;;;5.35;;
69979;SDS011;57318;56.232;43.944;2023-04-28T01:28:50;8.07;;;5.80;;
69979;SDS011;57318;56.232;43.944;2023-04-28T01:31:16;9.10;;;6.03;;
69979;SDS011;57318;56.232;43.944;2023-04-28T01:33:42;10.77;;;5.77;;
69979;SDS011;57318;56.232;43.944;2023-04-28T01:36:07;7.60;;;5.50;;
69979;SDS011;57318;56.232;43.944;2023-04-28T01:38:33;7.37;;;5.17;;
69979;SDS011;57318;56.232;43.944;2023-04-28T01:40:59;7.40;;;5.50;;
69979;SDS011;57318;56.232;43.944;2023-04-28T01:43:26;7.32;;;5.45;;
69979;SDS011;57318;56.232;43.944;2023-04-28T01:45:52;10.02;;;6.00;;
69979;SDS011;57318;56.232;43.944;2023-04-28T01:48:18;13.07;;;6.63;;
69979;SDS011;57318;56.232;43.944;2023-04-28T01:50:44;9.93;;;6.00;;
69979;SDS011;57318;56.232;43.944;2023-04-28T01:53:10;8.77;;;5.83;;
69979;SDS011;57318;56.232;43.944;2023-04-28T01:55:36;11.10;;;5.80;;
69979;SDS011;57318;56.232;43.944;2023-04-28T01:58:03;8.77;;;5.75;;
69979;SDS011;57318;56.232;43.944;2023-04-28T02:00:28;9.27;;;5.77;;
69979;SDS011;57318;56.232;43.944;2023-04-28T02:02:54;5.70;;;5.00;;
69979;SDS011;57318;56.232;43.944;2023-04-28T02:05:20;6.67;;;4.77;;
69979;SDS011;57318;56.232;43.944;2023-04-28T02:07:46;8.60;;;5.40;;
69979;SDS011;57318;56.232;43.944;2023-04-28T02:10:12;5.70;;;4.90;;
69979;SDS011;57318;56.232;43.944;2023-04-28T02:12:37;6.57;;;4.80;;
69979;SDS011;57318;56.232;43.944;2023-04-28T02:15:03;6.70;;;4.53;;
69979;SDS011;57318;56.232;43.944;2023-04-28T02:17:31;7.30;;;4.70;;
69979;SDS011;57318;56.232;43.944;2023-04-28T02:19:57;7.77;;;4.83;;
69979;SDS011;57318;56.232;43.944;2023-04-28T02:22:23;7.77;;;4.70;;
69979;SDS011;57318;56.232;43.944;2023-04-28T02:24:49;5.72;;;5.13;;
69979;SDS011;57318;56.232;43.944;2023-04-28T02:27:15;7.45;;;5.43;;
69979;SDS011;57318;56.232;43.944;2023-04-28T02:29:41;10.97;;;5.70;;
69979;SDS011;57318;56.232;43.944;2023-04-28T02:32:07;6.10;;;5.47;;
69979;SDS011;57318;56.232;43.944;2023-04-28T02:34:33;8.03;;;5.70;;
69979;SDS011;57318;56.232;43.944;2023-04-28T02:36:58;8.82;;;5.88;;
69979;SDS011;57318;56.232;43.944;2023-04-28T02:39:24;8.50;;;5.33;;
69979;SDS011;57318;56.232;43.944;2023-04-28T02:41:51;6.05;;;5.10;;
69979;SDS011;57318;56.232;43.944;2023-04-28T02:44:18;7.85;;;5.50;;
69979;SDS011;57318;56.232;43.944;2023-04-28T02:46:45;6.40;;;5.10;;
69979;SDS011;57318;56.232;43.944;2023-04-28T02:49:10;8.10;;;5.30;;
69979;SDS011;57318;56.232;43.944;2023-04-28T02:51:36;7.55;;;5.10;;
69979;SDS011;57318;56.232;43.944;2023-04-28T02:54:02;10.20;;;5.30;;
69979;SDS011;57318;56.232;43.944;2023-04-28T02:56:28;8.50;;;5.25;;
69979;SDS011;57318;56.232;43.944;2023-04-28T02:58:54;6.82;;;4.63;;
69979;SDS011;57318;56.232;43.944;2023-04-28T03:01:20;7.97;;;5.00;;
69979;SDS011;57318;56.232;43.944;2023-04-28T03:03:45;6.23;;;5.00;;
69979;SDS011;57318;56.232;43.944;2023-04-28T03:06:11;6.03;;;4.60;;
69979;SDS011;57318;56.232;43.944;2023-04-28T03:08:37;6.27;;;4.60;;
69979;SDS011;57318;56.232;43.944;2023-04-28T03:11:02;8.87;;;5.20;;
69979;SDS011;57318;56.232;43.944;2023-04-28T03:13:29;7.82;;;4.70;;
69979;SDS011;57318;56.232;43.944;2023-04-28T03:15:54;7.50;;;5.03;;
69979;SDS011;57318;56.232;43.944;2023-04-28T03:18:20;10.23;;;5.40;;
69979;SDS011;57318;56.232;43.944;2023-04-28T03:20:47;6.95;;;5.10;;
69979;SDS011;57318;56.232;43.944;2023-04-28T03:23:13;5.35;;;4.72;;
69979;SDS011;57318;56.232;43.944;2023-04-28T03:25:38;6.63;;;5.03;;
69979;SDS011;57318;56.232;43.944;2023-04-28T03:28:04;9.97;;;5.10;;
69979;SDS011;57318;56.232;43.944;2023-04-28T03:30:30;5.87;;;4.73;;
69979;SDS011;57318;56.232;43.944;2023-04-28T03:32:56;5.93;;;5.00;;
69979;SDS011;57318;56.232;43.944;2023-04-28T03:35:21;8.77;;;5.23;;
69979;SDS011;57318;56.232;43.944;2023-04-28T03:37:47;7.07;;;4.83;;
69979;SDS011;57318;56.232;43.944;2023-04-28T03:40:14;9.05;;;5.28;;
69979;SDS011;57318;56.232;43.944;2023-04-28T03:42:39;10.82;;;5.20;;
69979;SDS011;57318;56.232;43.944;2023-04-28T03:45:05;7.83;;;4.90;;
69979;SDS011;57318;56.232;43.944;2023-04-28T03:47:33;8.07;;;4.45;;
69979;SDS011;57318;56.232;43.944;2023-04-28T03:49:58;6.10;;;5.00;;
69979;SDS011;57318;56.232;43.944;2023-04-28T03:52:24;5.47;;;4.70;;
69979;SDS011;57318;56.232;43.944;2023-04-28T03:54:51;6.43;;;4.50;;
69979;SDS011;57318;56.232;43.944;2023-04-28T03:57:17;7.50;;;4.50;;
69979;SDS011;57318;56.232;43.944;2023-04-28T03:59:42;9.00;;;4.93;;
69979;SDS011;57318;56.232;43.944;2023-04-28T04:02:08;8.10;;;4.97;;
69979;SDS011;57318;56.232;43.944;2023-04-28T04:04:34;8.13;;;4.70;;
69979;SDS011;57318;56.232;43.944;2023-04-28T04:07:00;5.77;;;4.20;;
69979;SDS011;57318;56.232;43.944;2023-04-28T04:09:26;6.22;;;4.68;;
69979;SDS011;57318;56.232;43.944;2023-04-28T04:11:52;8.77;;;4.57;;
69979;SDS011;57318;56.232;43.944;2023-04-28T04:14:18;4.30;;;3.90;;
69979;SDS011;57318;56.232;43.944;2023-04-28T04:16:46;7.10;;;4.73;;
69979;SDS011;57318;56.232;43.944;2023-04-28T04:19:12;19.55;;;10.65;;
69979;SDS011;57318;56.232;43.944;2023-04-28T04:21:38;10.20;;;4.93;;
69979;SDS011;57318;56.232;43.944;2023-04-28T04:24:04;7.20;;;5.03;;
69979;SDS011;57318;56.232;43.944;2023-04-28T04:26:31;6.43;;;5.10;;
69979;SDS011;57318;56.232;43.944;2023-04-28T04:28:57;8.57;;;5.10;;
69979;SDS011;57318;56.232;43.944;2023-04-28T04:31:23;8.18;;;4.97;;
69979;SDS011;57318;56.232;43.944;2023-04-28T04:33:50;5.25;;;4.70;;
69979;SDS011;57318;56.232;43.944;2023-04-28T04:36:15;7.13;;;4.63;;
69979;SDS011;57318;56.232;43.944;2023-04-28T04:38:41;6.70;;;4.40;;
69979;SDS011;57318;56.232;43.944;2023-04-28T04:41:07;8.10;;;4.80;;
69979;SDS011;57318;56.232;43.944;2023-04-28T04:43:33;5.47;;;4.30;;
69979;SDS011;57318;56.232;43.944;2023-04-28T04:45:58;5.43;;;4.20;;
69979;SDS011;57318;56.232;43.944;2023-04-28T04:48:24;6.22;;;4.93;;
69979;SDS011;57318;56.232;43.944;2023-04-28T04:50:50;5.43;;;4.67;;
69979;SDS011;57318;56.232;43.944;2023-04-28T04:53:16;11.97;;;5.27;;
69979;SDS011;57318;56.232;43.944;2023-04-28T04:55:41;6.23;;;4.97;;
69979;SDS011;57318;56.232;43.944;2023-04-28T04:58:07;9.73;;;4.97;;
69979;SDS011;57318;56.232;43.944;2023-04-28T05:00:34;7.63;;;5.30;;
69979;SDS011;57318;56.232;43.944;2023-04-28T05:03:01;5.90;;;4.90;;
69979;SDS011;57318;56.232;43.944;2023-04-28T05:05:28;7.15;;;5.40;;
69979;SDS011;57318;56.232;43.944;2023-04-28T05:07:53;13.47;;;5.20;;
69979;SDS011;57318;56.232;43.944;2023-04-28T05:10:19;12.43;;;5.73;;
69979;SDS011;57318;56.232;43.944;2023-04-28T05:12:45;10.88;;;5.28;;
69979;SDS011;57318;56.232;43.944;2023-04-28T05:15:11;7.30;;;5.40;;
69979;SDS011;57318;56.232;43.944;2023-04-28T05:17:36;11.63;;;5.40;;
69979;SDS011;57318;56.232;43.944;2023-04-28T05:20:02;10.10;;;5.73;;
69979;SDS011;57318;56.232;43.944;2023-04-28T05:22:30;14.35;;;6.55;;
69979;SDS011;57318;56.232;43.944;2023-04-28T05:24:55;11.02;;;6.18;;
69979;SDS011;57318;56.232;43.944;2023-04-28T05:27:21;8.20;;;5.47;;
69979;SDS011;57318;56.232;43.944;2023-04-28T05:29:47;8.73;;;5.73;;
69979;SDS011;57318;56.232;43.944;2023-04-28T05:32:13;6.57;;;5.50;;
69979;SDS011;57318;56.232;43.944;2023-04-28T05:34:38;9.00;;;5.57;;
69979;SDS011;57318;56.232;43.944;2023-04-28T05:37:04;10.37;;;5.70;;
69979;SDS011;57318;56.232;43.944;2023-04-28T05:39:30;8.90;;;5.87;;
69979;SDS011;57318;56.232;43.944;2023-04-28T05:41:56;8.20;;;5.87;;
69979;SDS011;57318;56.232;43.944;2023-04-28T05:44:23;7.25;;;5.70;;
69979;SDS011;57318;56.232;43.944;2023-04-28T05:46:49;11.05;;;5.80;;
69979;SDS011;57318;56.232;43.944;2023-04-28T05:49:15;8.73;;;6.17;;
69979;SDS011;57318;56.232;43.944;2023-04-28T05:51:41;12.10;;;6.43;;
69979;SDS011;57318;56.232;43.944;2023-04-28T05:54:06;11.27;;;5.60;;
69979;SDS011;57318;56.232;43.944;2023-04-28T05:56:32;7.20;;;6.00;;
69979;SDS011;57318;56.232;43.944;2023-04-28T05:58:58;7.93;;;5.75;;
69979;SDS011;57318;56.232;43.944;2023-04-28T06:01:28;18.00;;;6.85;;
69979;SDS011;57318;56.232;43.944;2023-04-28T06:03:56;8.27;;;6.15;;
69979;SDS011;57318;56.232;43.944;2023-04-28T06:06:23;9.75;;;5.82;;
69979;SDS011;57318;56.232;43.944;2023-04-28T06:08:49;9.93;;;5.53;;
69979;SDS011;57318;56.232;43.944;2023-04-28T06:11:15;7.72;;;5.95;;
69979;SDS011;57318;56.232;43.944;2023-04-28T06:13:43;9.57;;;5.70;;
69979;SDS011;57318;56.232;43.944;2023-04-28T06:16:09;10.13;;;6.00;;
69979;SDS011;57318;56.232;43.944;2023-04-28T06:18:35;11.98;;;5.95;;
69979;SDS011;57318;56.232;43.944;2023-04-28T06:21:00;10.80;;;6.37;;
69979;SDS011;57318;56.232;43.944;2023-04-28T06:23:26;7.03;;;5.87;;
69979;SDS011;57318;56.232;43.944;2023-04-28T06:25:52;6.33;;;5.73;;
69979;SDS011;57318;56.232;43.944;2023-04-28T06:28:17;8.27;;;5.97;;
69979;SDS011;57318;56.232;43.944;2023-04-28T06:30:43;9.47;;;6.30;;
69979;SDS011;57318;56.232;43.944;2023-04-28T06:33:09;8.03;;;5.90;;
69979;SDS011;57318;56.232;43.944;2023-04-28T06:35:34;11.90;;;6.50;;
69979;SDS011;57318;56.232;43.944;2023-04-28T06:38:02;9.85;;;6.78;;
69979;SDS011;57318;56.232;43.944;2023-04-28T06:40:28;7.60;;;5.88;;
69979;SDS011;57318;56.232;43.944;2023-04-28T06:42:54;6.55;;;5.65;;
69979;SDS011;57318;56.232;43.944;2023-04-28T06:45:20;7.60;;;5.63;;
69979;SDS011;57318;56.232;43.944;2023-04-28T06:47:45;6.85;;;5.10;;
69979;SDS011;57318;56.232;43.944;2023-04-28T06:52:37;9.00;;;6.13;;
69979;SDS011;57318;56.232;43.944;2023-04-28T06:55:06;8.45;;;5.85;;
69979;SDS011;57318;56.232;43.944;2023-04-28T06:57:33;7.80;;;6.03;;
69979;SDS011;57318;56.232;43.944;2023-04-28T06:59:59;8.40;;;6.30;;
69979;SDS011;57318;56.232;43.944;2023-04-28T07:02:26;8.60;;;6.00;;
69979;SDS011;57318;56.232;43.944;2023-04-28T07:04:51;8.75;;;5.53;;
69979;SDS011;57318;56.232;43.944;2023-04-28T07:07:17;7.72;;;4.95;;
69979;SDS011;57318;56.232;43.944;2023-04-28T07:09:43;6.72;;;4.78;;
69979;SDS011;57318;56.232;43.944;2023-04-28T07:12:08;6.55;;;5.15;;
69979;SDS011;57318;56.232;43.944;2023-04-28T07:14:34;6.50;;;5.22;;
69979;SDS011;57318;56.232;43.944;2023-04-28T07:17:00;7.30;;;5.03;;
69979;SDS011;57318;56.232;43.944;2023-04-28T07:19:26;6.43;;;5.25;;
69979;SDS011;57318;56.232;43.944;2023-04-28T07:21:51;5.78;;;4.93;;
69979;SDS011;57318;56.232;43.944;2023-04-28T07:24:17;5.78;;;5.28;;
69979;SDS011;57318;56.232;43.944;2023-04-28T07:26:43;6.55;;;4.90;;
69979;SDS011;57318;56.232;43.944;2023-04-28T07:29:09;6.47;;;5.07;;
69979;SDS011;57318;56.232;43.944;2023-04-28T07:31:37;5.75;;;5.18;;
69979;SDS011;57318;56.232;43.944;2023-04-28T07:34:03;7.05;;;5.25;;
69979;SDS011;57318;56.232;43.944;2023-04-28T07:36:29;6.00;;;5.10;;
69979;SDS011;57318;56.232;43.944;2023-04-28T07:38:55;7.18;;;4.75;;
69979;SDS011;57318;56.232;43.944;2023-04-28T07:41:21;7.95;;;5.07;;
69979;SDS011;57318;56.232;43.944;2023-04-28T07:43:48;6.13;;;4.82;;
69979;SDS011;57318;56.232;43.944;2023-04-28T07:46:14;7.85;;;5.45;;
69979;SDS011;57318;56.232;43.944;2023-04-28T07:48:39;6.95;;;5.03;;
69979;SDS011;57318;56.232;43.944;2023-04-28T07:51:05;7.80;;;4.80;;
69979;SDS011;57318;56.232;43.944;2023-04-28T07:53:31;5.97;;;4.95;;
69979;SDS011;57318;56.232;43.944;2023-04-28T07:55:57;16.65;;;5.13;;
69979;SDS011;57318;56.232;43.944;2023-04-28T07:58:23;6.47;;;4.68;;
69979;SDS011;57318;56.232;43.944;2023-04-28T08:00:49;5.90;;;4.72;;
69979;SDS011;57318;56.232;43.944;2023-04-28T08:03:15;7.13;;;4.90;;
69979;SDS011;57318;56.232;43.944;2023-04-28T08:05:41;5.55;;;5.05;;
69979;SDS011;57318;56.232;43.944;2023-04-28T08:08:06;11.98;;;4.53;;
69979;SDS011;57318;56.232;43.944;2023-04-28T08:10:33;5.88;;;4.78;;
69979;SDS011;57318;56.232;43.944;2023-04-28T08:15:25;6.97;;;5.10;;
69979;SDS011;57318;56.232;43.944;2023-04-28T08:17:52;5.55;;;4.97;;
69979;SDS011;57318;56.232;43.944;2023-04-28T08:20:17;5.93;;;4.60;;
69979;SDS011;57318;56.232;43.944;2023-04-28T08:22:46;7.20;;;5.03;;
69979;SDS011;57318;56.232;43.944;2023-04-28T08:25:12;5.88;;;4.88;;
69979;SDS011;57318;56.232;43.944;2023-04-28T08:30:08;5.40;;;4.40;;
69979;SDS011;57318;56.232;43.944;2023-04-28T08:32:34;5.20;;;4.57;;
69979;SDS011;57318;56.232;43.944;2023-04-28T08:35:00;5.53;;;3.97;;
69979;SDS011;57318;56.232;43.944;2023-04-28T08:37:26;4.60;;;4.25;;
69979;SDS011;57318;56.232;43.944;2023-04-28T08:39:52;11.18;;;5.22;;
69979;SDS011;57318;56.232;43.944;2023-04-28T08:42:29;6.25;;;4.15;;
69979;SDS011;57318;56.232;43.944;2023-04-28T08:44:57;8.27;;;4.57;;
69979;SDS011;57318;56.232;43.944;2023-04-28T08:50:06;9.52;;;5.45;;
69979;SDS011;57318;56.232;43.944;2023-04-28T08:52:33;13.35;;;10.85;;
69979;SDS011;57318;56.232;43.944;2023-04-28T08:55:01;6.80;;;4.68;;
69979;SDS011;57318;56.232;43.944;2023-04-28T08:57:33;4.65;;;4.25;;
69979;SDS011;57318;56.232;43.944;2023-04-28T09:00:03;5.32;;;4.82;;
69979;SDS011;57318;56.232;43.944;2023-04-28T09:02:30;5.45;;;4.60;;
69979;SDS011;57318;56.232;43.944;2023-04-28T09:04:56;6.13;;;4.47;;
69979;SDS011;57318;56.232;43.944;2023-04-28T09:09:48;8.00;;;4.68;;
69979;SDS011;57318;56.232;43.944;2023-04-28T09:12:14;6.88;;;4.95;;
69979;SDS011;57318;56.232;43.944;2023-04-28T09:14:40;5.65;;;4.32;;
69979;SDS011;57318;56.232;43.944;2023-04-28T09:17:10;8.25;;;4.72;;
69979;SDS011;57318;56.232;43.944;2023-04-28T09:19:40;11.40;;;4.68;;
69979;SDS011;57318;56.232;43.944;2023-04-28T09:22:07;6.63;;;4.22;;
69979;SDS011;57318;56.232;43.944;2023-04-28T09:27:07;4.72;;;4.10;;
69979;SDS011;57318;56.232;43.944;2023-04-28T09:29:36;6.47;;;4.20;;
69979;SDS011;57318;56.232;43.944;2023-04-28T09:32:16;6.03;;;4.00;;
69979;SDS011;57318;56.232;43.944;2023-04-28T09:34:47;4.78;;;4.30;;
69979;SDS011;57318;56.232;43.944;2023-04-28T09:37:17;6.55;;;4.40;;
69979;SDS011;57318;56.232;43.944;2023-04-28T09:39:52;6.40;;;4.85;;
69979;SDS011;57318;56.232;43.944;2023-04-28T09:44:58;7.38;;;4.97;;
69979;SDS011;57318;56.232;43.944;2023-04-28T09:47:24;5.10;;;4.55;;
69979;SDS011;57318;56.232;43.944;2023-04-28T09:49:53;8.40;;;5.30;;
69979;SDS011;57318;56.232;43.944;2023-04-28T09:52:23;5.60;;;4.68;;
69979;SDS011;57318;56.232;43.944;2023-04-28T09:54:49;9.23;;;5.20;;
69979;SDS011;57318;56.232;43.944;2023-04-28T09:57:16;8.15;;;5.38;;
69979;SDS011;57318;56.232;43.944;2023-04-28T09:59:46;8.07;;;4.88;;
69979;SDS011;57318;56.232;43.944;2023-04-28T10:02:15;11.25;;;5.65;;
69979;SDS011;57318;56.232;43.944;2023-04-28T10:04:45;6.38;;;4.97;;
69979;SDS011;57318;56.232;43.944;2023-04-28T10:07:12;7.75;;;4.65;;
69979;SDS011;57318;56.232;43.944;2023-04-28T10:09:39;10.55;;;4.72;;
69979;SDS011;57318;56.232;43.944;2023-04-28T10:12:11;10.43;;;4.80;;
69979;SDS011;57318;56.232;43.944;2023-04-28T10:14:48;5.97;;;4.53;;
69979;SDS011;57318;56.232;43.944;2023-04-28T10:17:18;7.63;;;4.35;;
69979;SDS011;57318;56.232;43.944;2023-04-28T10:19:49;12.32;;;4.63;;
69979;SDS011;57318;56.232;43.944;2023-04-28T10:27:51;7.78;;;4.22;;
69979;SDS011;57318;56.232;43.944;2023-04-28T10:30:18;9.32;;;4.03;;
69979;SDS011;57318;56.232;43.944;2023-04-28T10:32:46;5.13;;;3.65;;
69979;SDS011;57318;56.232;43.944;2023-04-28T10:40:42;6.30;;;3.40;;
69979;SDS011;57318;56.232;43.944;2023-04-28T10:43:10;7.82;;;3.28;;
69979;SDS011;57318;56.232;43.944;2023-04-28T10:56:10;6.68;;;3.17;;
69979;SDS011;57318;56.232;43.944;2023-04-28T10:58:41;4.35;;;2.80;;
69979;SDS011;57318;56.232;43.944;2023-04-28T11:16:49;3.50;;;2.60;;
69979;SDS011;57318;56.232;43.944;2023-04-28T11:21:47;4.45;;;2.80;;
69979;SDS011;57318;56.232;43.944;2023-04-28T11:24:14;3.95;;;2.50;;
69979;SDS011;57318;56.232;43.944;2023-04-28T11:26:40;5.68;;;2.53;;
69979;SDS011;57318;56.232;43.944;2023-04-28T11:29:06;3.50;;;2.42;;
69979;SDS011;57318;56.232;43.944;2023-04-28T11:31:33;5.10;;;2.70;;
69979;SDS011;57318;56.232;43.944;2023-04-28T11:34:03;2.75;;;2.30;;
69979;SDS011;57318;56.232;43.944;2023-04-28T11:36:31;3.03;;;2.30;;
69979;SDS011;57318;56.232;43.944;2023-04-28T11:38:59;3.70;;;1.90;;
69979;SDS011;57318;56.232;43.944;2023-04-28T11:41:30;4.43;;;2.38;;
69979;SDS011;57318;56.232;43.944;2023-04-28T11:43:56;3.38;;;2.72;;
69979;SDS011;57318;56.232;43.944;2023-04-28T11:46:23;2.70;;;2.17;;
69979;SDS011;57318;56.232;43.944;2023-04-28T11:49:02;4.05;;;2.30;;
69979;SDS011;57318;56.232;43.944;2023-04-28T11:51:34;4.68;;;2.30;;
69979;SDS011;57318;56.232;43.944;2023-04-28T11:54:01;6.65;;;2.90;;
69979;SDS011;57318;56.232;43.944;2023-04-28T11:56:28;3.72;;;2.47;;
69979;SDS011;57318;56.232;43.944;2023-04-28T11:59:04;2.35;;;2.15;;
69979;SDS011;57318;56.232;43.944;2023-04-28T12:01:42;5.75;;;2.38;;
69979;SDS011;57318;56.232;43.944;2023-04-28T12:04:26;3.30;;;2.45;;
69979;SDS011;57318;56.232;43.944;2023-04-28T12:09:40;3.78;;;2.65;;
69979;SDS011;57318;56.232;43.944;2023-04-28T12:12:30;4.15;;;3.20;;
69979;SDS011;57318;56.232;43.944;2023-04-28T12:15:00;2.67;;;2.47;;
69979;SDS011;57318;56.232;43.944;2023-04-28T12:17:35;3.30;;;2.80;;
69979;SDS011;57318;56.232;43.944;2023-04-28T12:20:04;2.90;;;2.58;;
69979;SDS011;57318;56.232;43.944;2023-04-28T12:25:16;8.13;;;2.80;;
69979;SDS011;57318;56.232;43.944;2023-04-28T12:27:59;5.32;;;2.80;;
69979;SDS011;57318;56.232;43.944;2023-04-28T12:30:33;3.88;;;2.55;;
69979;SDS011;57318;56.232;43.944;2023-04-28T12:33:02;4.13;;;2.78;;
69979;SDS011;57318;56.232;43.944;2023-04-28T12:35:28;3.97;;;2.50;;
69979;SDS011;57318;56.232;43.944;2023-04-28T12:37:54;3.63;;;2.60;;
69979;SDS011;57318;56.232;43.944;2023-04-28T12:40:22;5.32;;;2.60;;
69979;SDS011;57318;56.232;43.944;2023-04-28T12:42:48;7.03;;;4.03;;
69979;SDS011;57318;56.232;43.944;2023-04-28T12:45:15;3.53;;;2.72;;
69979;SDS011;57318;56.232;43.944;2023-04-28T12:47:43;5.25;;;2.90;;
69979;SDS011;57318;56.232;43.944;2023-04-28T12:50:11;2.97;;;2.72;;
69979;SDS011;57318;56.232;43.944;2023-04-28T12:55:02;5.57;;;3.22;;
69979;SDS011;57318;56.232;43.944;2023-04-28T12:57:31;4.05;;;3.20;;
69979;SDS011;57318;56.232;43.944;2023-04-28T12:59:57;4.37;;;3.00;;
69979;SDS011;57318;56.232;43.944;2023-04-28T13:02:23;4.87;;;3.13;;
69979;SDS011;57318;56.232;43.944;2023-04-28T13:04:48;5.47;;;2.88;;
69979;SDS011;57318;56.232;43.944;2023-04-28T13:07:16;5.65;;;3.40;;
69979;SDS011;57318;56.232;43.944;2023-04-28T13:09:42;4.50;;;3.05;;
69979;SDS011;57318;56.232;43.944;2023-04-28T13:12:08;4.28;;;3.10;;
69979;SDS011;57318;56.232;43.944;2023-04-28T13:14:36;6.00;;;3.30;;
69979;SDS011;57318;56.232;43.944;2023-04-28T13:17:01;8.77;;;2.83;;
69979;SDS011;57318;56.232;43.944;2023-04-28T13:19:28;4.63;;;2.83;;
69979;SDS011;57318;56.232;43.944;2023-04-28T13:21:56;5.43;;;2.85;;
69979;SDS011;57318;56.232;43.944;2023-04-28T13:24:21;4.70;;;3.00;;
69979;SDS011;57318;56.232;43.944;2023-04-28T13:26:47;4.68;;;3.00;;
69979;SDS011;57318;56.232;43.944;2023-04-28T13:29:13;3.22;;;2.92;;
69979;SDS011;57318;56.232;43.944;2023-04-28T13:31:39;6.72;;;2.95;;
69979;SDS011;57318;56.232;43.944;2023-04-28T13:34:05;5.30;;;2.67;;
69979;SDS011;57318;56.232;43.944;2023-04-28T13:36:32;6.40;;;3.03;;
69979;SDS011;57318;56.232;43.944;2023-04-28T13:41:24;5.57;;;3.00;;
69979;SDS011;57318;56.232;43.944;2023-04-28T13:46:16;5.03;;;2.72;;
69979;SDS011;57318;56.232;43.944;2023-04-28T13:51:07;6.38;;;2.60;;
69979;SDS011;57318;56.232;43.944;2023-04-28T13:56:00;4.70;;;2.92;;
69979;SDS011;57318;56.232;43.944;2023-04-28T14:00:53;5.57;;;2.75;;
69979;SDS011;57318;56.232;43.944;2023-04-28T14:03:19;4.57;;;2.97;;
69979;SDS011;57318;56.232;43.944;2023-04-28T14:05:47;3.38;;;2.30;;
69979;SDS011;57318;56.232;43.944;2023-04-28T14:08:16;5.25;;;2.70;;
69979;SDS011;57318;56.232;43.944;2023-04-28T14:10:43;7.80;;;2.63;;
69979;SDS011;57318;56.232;43.944;2023-04-28T14:13:08;2.80;;;2.55;;
69979;SDS011;57318;56.232;43.944;2023-04-28T14:15:34;3.47;;;2.55;;
69979;SDS011;57318;56.232;43.944;2023-04-28T14:18:01;6.22;;;2.60;;
69979;SDS011;57318;56.232;43.944;2023-04-28T14:20:27;7.50;;;2.83;;
69979;SDS011;57318;56.232;43.944;2023-04-28T14:22:53;2.95;;;2.50;;
69979;SDS011;57318;56.232;43.944;2023-04-28T14:25:19;4.68;;;2.75;;
69979;SDS011;57318;56.232;43.944;2023-04-28T14:27:48;5.38;;;3.08;;
69979;SDS011;57318;56.232;43.944;2023-04-28T14:30:14;2.75;;;2.42;;
69979;SDS011;57318;56.232;43.944;2023-04-28T14:32:40;4.78;;;2.90;;
69979;SDS011;57318;56.232;43.944;2023-04-28T14:35:06;3.17;;;2.88;;
69979;SDS011;57318;56.232;43.944;2023-04-28T14:37:33;4.05;;;2.47;;
69979;SDS011;57318;56.232;43.944;2023-04-28T14:40:00;6.43;;;2.80;;
69979;SDS011;57318;56.232;43.944;2023-04-28T14:42:27;6.75;;;2.80;;
69979;SDS011;57318;56.232;43.944;2023-04-28T14:45:00;4.63;;;2.70;;
69979;SDS011;57318;56.232;43.944;2023-04-28T14:47:36;9.13;;;2.92;;
69979;SDS011;57318;56.232;43.944;2023-04-28T14:50:03;4.68;;;2.70;;
69979;SDS011;57318;56.232;43.944;2023-04-28T14:52:31;6.32;;;3.13;;
69979;SDS011;57318;56.232;43.944;2023-04-28T14:54:58;4.05;;;2.83;;
69979;SDS011;57318;56.232;43.944;2023-04-28T14:57:25;5.47;;;2.50;;
69979;SDS011;57318;56.232;43.944;2023-04-28T14:59:51;3.15;;;2.50;;
69979;SDS011;57318;56.232;43.944;2023-04-28T15:02:19;3.97;;;2.65;;
69979;SDS011;57318;56.232;43.944;2023-04-28T15:04:51;4.72;;;2.85;;
69979;SDS011;57318;56.232;43.944;2023-04-28T15:07:18;4.95;;;2.80;;
69979;SDS011;57318;56.232;43.944;2023-04-28T15:09:45;9.05;;;2.97;;
69979;SDS011;57318;56.232;43.944;2023-04-28T15:12:11;3.13;;;2.83;;
69979;SDS011;57318;56.232;43.944;2023-04-28T15:14:37;3.72;;;2.95;;
69979;SDS011;57318;56.232;43.944;2023-04-28T15:17:03;4.82;;;3.03;;
69979;SDS011;57318;56.232;43.944;2023-04-28T15:19:29;3.85;;;3.30;;
69979;SDS011;57318;56.232;43.944;2023-04-28T15:21:55;3.78;;;3.10;;
69979;SDS011;57318;56.232;43.944;2023-04-28T15:24:22;8.55;;;3.40;;
69979;SDS011;57318;56.232;43.944;2023-04-28T15:26:48;6.28;;;4.28;;
69979;SDS011;57318;56.232;43.944;2023-04-28T15:29:14;8.48;;;4.15;;
69979;SDS011;57318;56.232;43.944;2023-04-28T15:31:40;11.10;;;3.92;;
69979;SDS011;57318;56.232;43.944;2023-04-28T15:34:06;8.77;;;4.13;;
69979;SDS011;57318;56.232;43.944;2023-04-28T15:36:37;7.85;;;3.97;;
69979;SDS011;57318;56.232;43.944;2023-04-28T15:39:07;9.73;;;4.50;;
69979;SDS011;57318;56.232;43.944;2023-04-28T15:41:33;13.23;;;5.22;;
69979;SDS011;57318;56.232;43.944;2023-04-28T15:44:00;10.60;;;5.55;;
69979;SDS011;57318;56.232;43.944;2023-04-28T15:46:26;12.98;;;6.03;;
69979;SDS011;57318;56.232;43.944;2023-04-28T15:48:53;9.57;;;5.47;;
69979;SDS011;57318;56.232;43.944;2023-04-28T15:51:19;14.60;;;5.90;;
69979;SDS011;57318;56.232;43.944;2023-04-28T15:53:45;11.90;;;5.10;;
69979;SDS011;57318;56.232;43.944;2023-04-28T15:56:11;15.38;;;4.82;;